Time;durP1;ratioP1;P1;durP2;ratioP2;P2;SDS_P1;SDS_P2;PMS_P1;PMS_P2;Temp;Humidity;BMP_temperature;BMP_pressure;BME280_temperature;BME280_humidity;BME280_pressure;Samples;Min_cycle;Max_cycle;Signal;HPM_P1;HPM_P2
2023/11/15 06:43:12;;;;;;;3.17;0.70;;;;;;;9.33;86.80;96637.06;5704280;23;20093;-80
2023/11/15 16:55:43;;;;;;;3.40;1.90;;;;;;;9.80;80.95;96975.56;5541096;23;20058;-80
2023/11/15 16:58:11;;;;;;;6.18;2.50;;;;;;;9.82;79.65;96971.00;4850799;29;20237;-83
2023/11/15 17:00:40;;;;;;;4.25;1.98;;;;;;;9.88;79.72;96974.72;4835057;29;20079;-82
2023/11/15 17:03:08;;;;;;;4.72;1.75;;;;;;;9.95;79.96;96985.28;4840851;29;20050;-83
2023/11/15 17:05:37;;;;;;;3.20;1.70;;;;;;;9.97;79.57;96985.91;4846552;29;20041;-80
2023/11/15 17:08:05;;;;;;;1.92;1.05;;;;;;;9.98;78.29;96990.16;4849022;29;20046;-79
2023/11/15 17:10:34;;;;;;;2.58;1.33;;;;;;;10.00;78.29;97003.84;4847490;29;20034;-79
2023/11/15 17:13:05;;;;;;;3.67;1.35;;;;;;;10.04;80.00;97007.75;4844128;29;20039;-79
2023/11/15 17:15:33;;;;;;;5.20;1.65;;;;;;;10.05;79.59;97009.34;4844735;29;20034;-80
2023/11/15 17:18:03;;;;;;;4.45;1.05;;;;;;;10.03;79.43;97011.31;4840986;29;20045;-80
2023/11/15 17:20:33;;;;;;;22.77;14.55;;;;;;;10.03;79.05;97008.72;4855434;29;20105;-80
2023/11/15 17:23:04;;;;;;;10.27;4.43;;;;;;;10.02;78.93;97017.53;4834663;29;20073;-80
2023/11/15 17:25:35;;;;;;;6.90;3.03;;;;;;;10.00;78.86;97014.28;4841201;29;20069;-80
2023/11/15 17:28:09;;;;;;;16.67;6.65;;;;;;;9.98;77.84;97016.22;4843869;29;20058;-81
2023/11/15 17:30:38;;;;;;;5.78;2.00;;;;;;;9.99;78.47;97002.22;4846517;29;20074;-80
2023/11/15 17:33:06;;;;;;;7.30;1.50;;;;;;;9.97;79.04;97015.44;4859360;29;20140;-81
2023/11/15 17:35:35;;;;;;;3.33;1.33;;;;;;;9.98;78.55;97016.22;4837300;29;20061;-80
2023/11/15 17:38:04;;;;;;;3.97;1.13;;;;;;;9.97;77.68;97017.19;4840084;29;20070;-81
2023/11/15 17:40:32;;;;;;;3.08;0.98;;;;;;;9.97;77.23;97028.47;4838710;29;20515;-80
2023/11/15 17:43:00;;;;;;;5.32;1.55;;;;;;;9.96;76.41;97029.41;4840947;29;20060;-80
2023/11/15 17:45:29;;;;;;;3.33;1.30;;;;;;;9.95;76.73;97025.19;4840699;29;20050;-81
2023/11/15 17:47:57;;;;;;;5.72;1.48;;;;;;;9.94;75.90;97028.78;4833872;29;20057;-81
2023/11/15 17:50:25;;;;;;;4.72;1.27;;;;;;;9.96;76.46;97033.81;4840407;29;20667;-80
2023/11/15 17:52:53;;;;;;;7.00;1.58;;;;;;;9.97;76.29;97038.88;4836029;29;20067;-80
2023/11/15 17:55:21;;;;;;;5.95;1.75;;;;;;;10.01;77.42;97041.94;4837133;29;20050;-79
2023/11/15 17:57:49;;;;;;;3.67;1.48;;;;;;;10.03;77.87;97040.00;4834314;29;20053;-81
2023/11/15 18:00:18;;;;;;;8.63;2.08;;;;;;;10.03;77.68;97035.59;4838031;29;20075;-81
2023/11/15 18:02:50;;;;;;;4.43;1.48;;;;;;;10.03;78.31;97045.19;4846496;29;20073;-81
2023/11/15 18:05:18;;;;;;;4.93;1.83;;;;;;;10.05;77.97;97045.84;4845788;29;20058;-81
2023/11/15 18:07:46;;;;;;;7.88;1.70;;;;;;;10.05;78.89;97058.88;4851617;29;20588;-81
2023/11/15 18:10:14;;;;;;;3.53;1.35;;;;;;;10.06;80.30;97048.31;4847973;29;20055;-80
2023/11/15 18:12:43;;;;;;;3.85;1.30;;;;;;;10.07;80.22;97059.53;4838781;29;20064;-80
2023/11/15 18:15:12;;;;;;;5.20;1.85;;;;;;;10.09;80.96;97070.59;4839139;29;20042;-81
2023/11/15 18:17:40;;;;;;;3.17;1.90;;;;;;;10.08;80.17;97064.59;4843937;29;20088;-80
2023/11/15 18:20:12;;;;;;;3.10;1.63;;;;;;;10.07;79.01;97067.34;4830198;29;20088;-81
2023/11/15 18:22:40;;;;;;;2.67;1.40;;;;;;;10.08;80.48;97058.56;4838444;29;20089;-80
2023/11/15 18:25:10;;;;;;;4.03;1.60;;;;;;;10.09;79.83;97065.38;4831608;29;20046;-81
2023/11/15 18:27:38;;;;;;;4.40;1.30;;;;;;;10.07;77.68;97062.94;4827444;29;20486;-79
2023/11/15 18:30:08;;;;;;;3.50;1.95;;;;;;;10.09;79.30;97065.38;4832726;29;20062;-81
2023/11/15 18:32:38;;;;;;;4.30;1.95;;;;;;;10.10;80.71;97067.84;4841312;29;20054;-80
2023/11/15 18:35:07;;;;;;;5.03;1.38;;;;;;;10.10;79.48;97073.06;4845110;29;20039;-81
2023/11/15 18:37:37;;;;;;;15.70;10.27;;;;;;;10.08;79.82;97072.41;4842491;29;20114;-81
2023/11/15 18:40:09;;;;;;;67.88;43.72;;;;;;;10.11;81.28;97081.69;4836551;29;20051;-81
2023/11/15 18:42:37;;;;;;;10.23;4.65;;;;;;;10.09;81.02;97071.41;4843713;29;20046;-80
2023/11/15 18:45:09;;;;;;;4.53;2.08;;;;;;;10.07;80.75;97078.59;4838859;29;20038;-79
2023/11/15 18:47:38;;;;;;;4.65;1.88;;;;;;;10.05;79.32;97072.72;4838111;29;20061;-80
2023/11/15 18:50:08;;;;;;;5.25;1.73;;;;;;;10.03;79.42;97066.84;4829241;29;20459;-80
2023/11/15 18:52:40;;;;;;;2.65;1.35;;;;;;;10.04;80.56;97070.31;4815263;29;20099;-81
2023/11/15 18:55:11;;;;;;;2.80;1.50;;;;;;;10.01;78.61;97078.44;4829781;29;20137;-81
2023/11/15 18:57:39;;;;;;;3.03;1.30;;;;;;;9.98;79.69;97071.78;4830223;29;20085;-81
2023/11/15 19:00:11;;;;;;;2.65;1.30;;;;;;;9.99;78.99;97077.78;4829220;29;20079;-81
2023/11/15 19:02:41;;;;;;;4.13;1.42;;;;;;;9.99;79.21;97077.78;4825369;29;20047;-81
2023/11/15 19:05:09;;;;;;;4.47;2.10;;;;;;;9.99;79.90;97077.78;4827563;29;20123;-81
2023/11/15 19:07:40;;;;;;;4.70;1.85;;;;;;;10.00;80.77;97087.25;4834261;29;20079;-81
2023/11/15 19:10:10;;;;;;;3.78;1.55;;;;;;;10.01;80.57;97092.28;4831730;29;20058;-82
2023/11/15 19:12:38;;;;;;;6.65;1.98;;;;;;;10.00;80.19;97082.84;4831875;29;20050;-83
2023/11/15 19:15:10;;;;;;;5.65;1.40;;;;;;;9.99;79.65;97083.84;4832218;29;20091;-82
2023/11/15 19:17:39;;;;;;;2.40;1.42;;;;;;;9.99;79.65;97083.84;4822196;29;20057;-82
2023/11/15 19:20:08;;;;;;;5.28;1.23;;;;;;;9.97;78.73;97079.75;4831155;29;20077;-83
2023/11/15 19:22:38;;;;;;;5.45;1.80;;;;;;;9.96;79.60;97081.53;4828065;29;20058;-81
2023/11/15 19:25:07;;;;;;;3.65;1.50;;;;;;;9.99;81.63;97080.38;4831961;29;20137;-81
2023/11/15 19:27:37;;;;;;;3.33;1.50;;;;;;;10.01;81.81;97070.63;4834526;29;20070;-81
2023/11/15 19:30:08;;;;;;;3.05;1.60;;;;;;;10.03;82.10;97066.06;4829488;29;20058;-81
2023/11/15 19:32:37;;;;;;;3.55;1.98;;;;;;;10.02;80.70;97064.44;4824064;29;20504;-81
2023/11/15 19:35:07;;;;;;;3.67;2.00;;;;;;;9.99;81.66;97077.78;4823711;29;20086;-81
2023/11/15 19:37:35;;;;;;;2.83;1.77;;;;;;;9.99;83.17;97075.19;4830477;29;20501;-81
2023/11/15 19:40:08;;;;;;;6.03;1.83;;;;;;;9.98;81.93;97074.38;4829300;29;20057;-81
2023/11/15 19:42:38;;;;;;;3.58;2.00;;;;;;;9.96;81.01;97075.53;4827204;29;20043;-81
2023/11/15 19:45:10;;;;;;;3.95;2.15;;;;;;;9.93;80.34;97075.84;4827030;29;20090;-80
2023/11/15 19:47:39;;;;;;;5.00;1.80;;;;;;;9.92;80.83;97069.00;4827172;29;20087;-81
2023/11/15 19:50:08;;;;;;;3.22;1.90;;;;;;;9.92;81.17;97064.59;4832275;29;20091;-81
2023/11/15 19:52:36;;;;;;;10.80;6.18;;;;;;;9.89;80.31;97068.38;4830577;29;20051;-83
2023/11/15 19:55:08;;;;;;;14.10;8.02;;;;;;;9.86;79.59;97058.28;4830199;29;20085;-82
2023/11/15 19:57:36;;;;;;;10.80;4.43;;;;;;;9.87;79.47;97067.72;4834158;29;20074;-83
2023/11/15 20:00:10;;;;;;;7.88;4.82;;;;;;;9.91;81.44;97057.78;4827317;29;20058;-82
2023/11/15 20:02:39;;;;;;;5.18;2.47;;;;;;;9.94;81.62;97054.03;4826863;29;20051;-81
2023/11/15 20:05:14;;;;;;;4.90;1.55;;;;;;;9.93;80.27;97052.38;4852081;29;20058;-80
2023/11/15 20:07:41;;;;;;;6.30;1.67;;;;;;;9.94;81.02;97046.22;4852133;29;20054;-80
2023/11/15 20:10:11;;;;;;;4.82;1.30;;;;;;;9.93;81.19;97041.97;4834166;29;20083;-80
2023/11/15 20:12:40;;;;;;;3.15;1.38;;;;;;;9.89;78.46;97047.50;4843220;29;20053;-81
2023/11/15 20:15:09;;;;;;;5.78;1.85;;;;;;;9.86;77.02;97045.25;4839339;29;20058;-80
2023/11/15 20:17:38;;;;;;;1.58;1.08;;;;;;;9.85;78.40;97037.59;4835104;29;20030;-80
2023/11/15 20:20:07;;;;;;;2.42;1.13;;;;;;;9.86;79.63;97050.47;4837543;29;20533;-80
2023/11/15 20:22:35;;;;;;;1.75;1.13;;;;;;;9.85;78.54;97043.59;4837353;29;20061;-81
2023/11/15 20:25:19;;;;;;;4.28;0.80;;;;;;;9.83;77.94;97050.78;4838729;29;20119;-81
2023/11/15 20:27:47;;;;;;;3.17;1.33;;;;;;;9.82;78.50;97049.16;4840591;29;20069;-81
2023/11/15 20:30:15;;;;;;;4.30;1.17;;;;;;;9.82;77.51;97056.97;4824119;29;20051;-81
2023/11/15 20:32:43;;;;;;;3.22;1.10;;;;;;;9.81;77.87;97055.34;4831165;29;20050;-80
2023/11/15 20:35:11;;;;;;;3.63;1.25;;;;;;;9.80;77.27;97050.31;4834824;29;20051;-81
2023/11/15 20:37:39;;;;;;;2.83;1.40;;;;;;;9.82;77.99;97053.56;4836778;29;20075;-81
2023/11/15 20:40:14;;;;;;;3.13;1.27;;;;;;;9.82;77.22;97059.59;4837817;29;20066;-81
2023/11/15 20:42:45;;;;;;;3.75;1.70;;;;;;;9.83;79.13;97061.19;4842352;29;20103;-81
2023/11/15 20:45:14;;;;;;;7.22;2.30;;;;;;;9.84;78.47;97055.03;4844495;29;20085;-81
2023/11/15 20:47:42;;;;;;;4.38;1.40;;;;;;;9.83;76.65;97061.19;4830043;29;20075;-81
2023/11/15 20:50:11;;;;;;;5.93;1.67;;;;;;;9.80;76.38;97051.13;4820235;29;20075;-81
2023/11/15 20:52:39;;;;;;;2.83;0.90;;;;;;;9.81;76.60;97047.53;4825882;29;20049;-80
2023/11/15 20:55:08;;;;;;;3.35;0.80;;;;;;;9.80;78.02;97051.13;4830359;29;20059;-80
2023/11/15 20:57:37;;;;;;;5.07;1.45;;;;;;;9.80;79.03;97043.31;4829598;29;20047;-81
2023/11/15 21:00:12;;;;;;;4.03;1.10;;;;;;;9.83;77.80;97040.34;4836018;29;20050;-81
2023/11/15 21:02:40;;;;;;;2.88;1.02;;;;;;;9.80;76.19;97032.88;4824622;29;20051;-80
2023/11/15 21:05:10;;;;;;;1.67;1.10;;;;;;;9.81;78.51;97037.09;4838691;29;20058;-80
2023/11/15 21:07:39;;;;;;;3.00;1.20;;;;;;;9.84;78.71;97030.78;4834245;29;20078;-81
2023/11/15 21:10:08;;;;;;;3.35;1.50;;;;;;;9.81;77.79;97031.88;4830677;29;20517;-80
2023/11/15 21:12:36;;;;;;;4.50;1.70;;;;;;;9.84;79.33;97036.78;4821766;29;20129;-81
2023/11/15 21:15:09;;;;;;;3.13;0.90;;;;;;;9.82;77.70;97030.13;4842924;29;20055;-80
2023/11/15 21:17:37;;;;;;;1.80;0.98;;;;;;;9.81;78.14;97024.06;4831071;29;20195;-80
2023/11/15 21:20:10;;;;;;;1.55;1.08;;;;;;;9.81;78.65;97031.09;4858978;23;20072;-90
2023/11/15 21:22:47;;;;;;;3.63;0.95;;;;;;;9.81;78.33;97021.47;4855158;29;20106;-91
2023/11/15 21:25:26;;;;;;;3.75;1.33;;;;;;;9.81;76.55;97021.47;4854586;29;20069;-89
2023/11/15 21:27:57;;;;;;;6.22;2.08;;;;;;;9.82;77.67;97024.91;4855721;29;20065;-90
2023/11/15 21:30:33;;;;;;;6.32;1.70;;;;;;;9.81;79.28;97021.47;4840603;29;20062;-89
2023/11/15 21:33:02;;;;;;;4.45;1.52;;;;;;;9.82;79.30;97019.69;4833730;29;20047;-90
2023/11/15 21:35:37;;;;;;;5.68;1.65;;;;;;;9.82;80.02;97017.09;4833849;29;20406;-91
2023/11/15 21:38:17;;;;;;;5.70;1.67;;;;;;;9.81;81.19;97007.63;4833397;29;20597;-89
2023/11/15 21:40:55;;;;;;;2.65;1.10;;;;;;;9.80;79.35;97017.25;4834017;29;20509;-89
2023/11/15 21:43:31;;;;;;;4.80;1.10;;;;;;;9.79;79.05;97014.81;4834568;29;20054;-88
2023/11/15 21:46:00;;;;;;;2.47;1.02;;;;;;;9.78;79.25;97011.41;4834726;29;20062;-90
2023/11/15 21:48:36;;;;;;;1.92;0.85;;;;;;;9.76;76.32;97013.34;4835158;29;20057;-89
2023/11/15 21:51:08;;;;;;;2.70;1.15;;;;;;;9.78;79.61;97011.41;4834409;29;20058;-91
2023/11/15 21:53:39;;;;;;;2.30;1.15;;;;;;;9.79;80.35;97013.00;4834376;29;20050;-89
2023/11/15 21:56:20;;;;;;;7.63;1.50;;;;;;;9.78;77.36;97015.78;4833625;29;20501;-87
2023/11/15 21:58:55;;;;;;;4.38;1.95;;;;;;;9.78;78.84;97016.59;4833496;29;20513;-88
2023/11/15 22:01:38;;;;;;;3.03;1.10;;;;;;;9.79;81.18;97007.00;4832589;29;20146;-87
2023/11/15 22:04:09;;;;;;;3.90;1.27;;;;;;;9.79;80.97;96996.56;4833680;29;20145;-89
2023/11/15 22:06:37;;;;;;;2.20;1.33;;;;;;;9.80;82.15;97006.03;4832994;29;20062;-90
2023/11/15 22:09:29;;;;;;;3.60;1.20;;;;;;;9.78;79.16;97000.16;4832610;29;20058;-85
2023/11/15 22:12:00;;;;;;;2.63;1.23;;;;;;;9.74;77.81;96994.47;4836719;29;20133;-90
2023/11/15 22:14:32;;;;;;;3.97;1.60;;;;;;;9.74;79.32;96999.69;4833505;29;20055;-90
2023/11/15 22:17:06;;;;;;;4.20;1.90;;;;;;;9.74;77.93;96993.66;4832790;29;20065;-89
2023/11/15 22:19:43;;;;;;;4.35;1.20;;;;;;;9.72;77.45;96991.22;4833198;29;20054;-89
2023/11/15 22:22:13;;;;;;;3.10;1.05;;;;;;;9.73;77.92;96986.81;4833258;29;20110;-89
2023/11/15 22:24:46;;;;;;;2.08;1.25;;;;;;;9.74;79.70;96989.25;4832458;29;20569;-89
2023/11/15 22:27:23;;;;;;;3.35;1.10;;;;;;;9.76;79.84;96982.09;4831581;29;20070;-87
2023/11/15 22:29:53;;;;;;;3.67;1.33;;;;;;;9.76;80.25;96982.09;4832766;29;20441;-90
2023/11/15 22:32:31;;;;;;;5.68;1.30;;;;;;;9.75;80.33;96975.25;4833859;29;20058;-88
2023/11/15 22:35:02;;;;;;;4.22;1.40;;;;;;;9.75;80.32;96984.84;4833349;29;20529;-88
2023/11/15 22:37:31;;;;;;;3.47;1.17;;;;;;;9.75;80.43;96985.69;4834054;29;20050;-91
2023/11/15 22:39:58;;;;;;;5.13;1.65;;;;;;;9.75;79.39;96983.09;4833201;29;20062;-91
2023/11/15 22:42:27;;;;;;;4.78;1.13;;;;;;;9.75;79.13;96971.81;4834385;29;20085;-88
2023/11/15 22:44:55;;;;;;;3.00;1.25;;;;;;;9.76;80.14;96970.84;4834086;29;20078;-91
2023/11/15 22:47:25;;;;;;;5.38;1.40;;;;;;;9.75;80.50;96975.25;4831911;29;20055;-92
2023/11/15 22:49:53;;;;;;;3.72;1.23;;;;;;;9.74;80.61;96973.63;4834905;29;20076;-86
2023/11/15 22:52:21;;;;;;;4.68;1.50;;;;;;;9.76;81.54;96974.28;4833942;29;20513;-87
2023/11/15 22:54:50;;;;;;;5.10;1.50;;;;;;;9.76;80.78;96971.66;4831578;29;20444;-89
2023/11/15 22:57:18;;;;;;;1.48;1.00;;;;;;;9.75;80.14;96977.03;4835574;29;20080;-89
2023/11/15 22:59:45;;;;;;;10.65;2.05;;;;;;;9.76;80.34;96968.25;4835379;29;20492;-91
2023/11/15 23:02:17;;;;;;;3.80;1.52;;;;;;;9.75;80.41;96964.84;4835185;29;20154;-91
2023/11/15 23:04:52;;;;;;;2.75;1.30;;;;;;;9.78;82.26;96969.72;4834471;29;20095;-88
2023/11/15 23:07:20;;;;;;;6.13;1.67;;;;;;;9.77;81.11;96972.47;4832334;29;20502;-85
2023/11/15 23:09:49;;;;;;;3.60;1.40;;;;;;;9.76;81.23;96966.47;4833570;29;20050;-87
2023/11/15 23:12:17;;;;;;;3.25;1.42;;;;;;;9.78;81.89;96964.50;4833141;29;20058;-89
2023/11/15 23:14:47;;;;;;;6.97;1.98;;;;;;;9.78;81.80;96972.31;4836304;29;20054;-89
2023/11/15 23:17:16;;;;;;;6.22;2.05;;;;;;;9.78;81.46;96964.50;4836956;29;20051;-90
2023/11/15 23:19:45;;;;;;;4.30;1.70;;;;;;;9.77;80.59;96969.88;4835103;29;20117;-88
2023/11/15 23:22:14;;;;;;;3.60;1.38;;;;;;;9.75;80.69;96964.84;4833628;29;20090;-87
2023/11/15 23:24:42;;;;;;;5.22;0.98;;;;;;;9.75;80.09;96954.44;4833606;29;20216;-91
2023/11/15 23:27:10;;;;;;;1.40;0.93;;;;;;;9.73;79.33;96952.94;4836285;29;20103;-91
2023/11/15 23:29:39;;;;;;;5.47;1.40;;;;;;;9.74;80.23;96946.75;4838190;29;20058;-91
2023/11/15 23:32:11;;;;;;;1.40;0.93;;;;;;;9.74;80.88;96952.78;4837754;29;20089;-90
2023/11/15 23:34:38;;;;;;;3.38;1.10;;;;;;;9.74;79.71;96947.56;4838609;29;20050;-90
2023/11/15 23:37:08;;;;;;;2.63;1.13;;;;;;;9.70;77.96;96947.09;4838365;29;20058;-91
2023/11/15 23:39:37;;;;;;;5.15;1.25;;;;;;;9.71;78.39;96947.91;4837949;29;20111;-91
2023/11/15 23:42:07;;;;;;;3.72;1.02;;;;;;;9.74;79.84;96944.97;4837117;29;20061;-90
2023/11/15 23:44:36;;;;;;;2.65;0.98;;;;;;;9.74;79.18;96946.75;4836542;29;20137;-89
2023/11/15 23:47:05;;;;;;;4.38;1.10;;;;;;;9.70;76.51;96947.09;4836582;29;20046;-89
2023/11/15 23:49:33;;;;;;;3.92;1.05;;;;;;;9.70;76.74;96935.84;4837157;29;20513;-88
2023/11/15 23:52:03;;;;;;;4.63;1.40;;;;;;;9.70;74.36;96946.28;4836105;29;20050;-90
2023/11/15 23:54:33;;;;;;;1.88;1.15;;;;;;;9.72;75.75;96953.94;4836998;29;20050;-91
2023/11/15 23:57:03;;;;;;;1.67;0.95;;;;;;;9.73;76.78;96955.53;4835496;29;20141;-87
2023/11/15 23:59:31;;;;;;;5.35;1.23;;;;;;;9.72;77.72;96959.94;4836085;29;20050;-89
